createdAt,value
2023-05-06T05:23:25.174Z,15.58
2023-05-06T05:25:53.230Z,15.67
2023-05-06T05:28:20.693Z,15.69
2023-05-06T05:30:48.214Z,15.78
2023-05-06T05:33:15.849Z,15.88
2023-05-06T05:35:43.425Z,16.01
2023-05-06T05:38:13.121Z,16.06
2023-05-06T05:40:40.842Z,16.12
2023-05-06T05:46:04.888Z,16.15
2023-05-06T05:48:32.905Z,16.10
2023-05-06T05:55:16.345Z,16.22
2023-05-06T06:03:00.227Z,16.21
2023-05-06T06:05:27.959Z,16.22
2023-05-06T06:07:55.527Z,16.31
2023-05-06T06:10:23.034Z,16.42
2023-05-06T06:12:50.537Z,16.41
2023-05-06T06:15:18.102Z,16.51
2023-05-06T06:17:45.714Z,16.66
2023-05-06T06:20:14.274Z,16.67
2023-05-06T06:22:41.868Z,16.65
2023-05-06T06:25:10.378Z,16.65
2023-05-06T06:27:38.530Z,16.73
2023-05-06T06:30:07.782Z,16.85
2023-05-06T06:32:35.488Z,16.88
2023-05-06T06:35:03.044Z,16.94
2023-05-06T06:37:30.580Z,17.08
2023-05-06T06:39:58.059Z,17.08
2023-05-06T06:42:26.203Z,17.11
2023-05-06T06:44:56.723Z,17.18
2023-05-06T06:47:24.258Z,17.28
2023-05-06T06:49:51.721Z,17.41
2023-05-06T06:52:19.194Z,17.50
2023-05-06T06:54:46.807Z,17.43
2023-05-06T06:57:14.239Z,17.52
2023-05-06T06:59:41.728Z,17.54
2023-05-06T07:02:09.140Z,17.60
2023-05-06T07:04:36.773Z,17.67
2023-05-06T07:07:04.290Z,17.75
2023-05-06T07:09:32.502Z,17.84
2023-05-06T07:12:01.923Z,17.90
2023-05-06T07:14:29.470Z,17.97
2023-05-06T07:16:57.070Z,17.89
2023-05-06T07:19:24.579Z,17.97
2023-05-06T07:21:52.009Z,18.06
2023-05-06T07:24:19.505Z,17.99
2023-05-06T07:26:47.937Z,18.09
2023-05-06T07:29:16.213Z,18.17
2023-05-06T07:31:44.630Z,18.21
2023-05-06T07:34:12.098Z,18.23
2023-05-06T07:36:43.624Z,18.34
2023-05-06T07:39:12.642Z,18.41
2023-05-06T07:41:40.523Z,18.48
2023-05-06T07:44:08.128Z,18.48
2023-05-06T07:46:36.091Z,18.49
2023-05-06T07:49:03.948Z,18.63
2023-05-06T07:51:32.050Z,18.51
2023-05-06T07:53:59.718Z,18.65
2023-05-06T07:56:27.260Z,18.69
2023-05-06T07:58:54.871Z,18.82
2023-05-06T08:01:22.675Z,18.91
2023-05-06T08:03:50.230Z,18.95
2023-05-06T08:06:17.828Z,19.05
2023-05-06T08:08:46.682Z,19.03
2023-05-06T08:11:14.506Z,19.00
2023-05-06T08:13:42.205Z,19.08
2023-05-06T08:16:10.099Z,19.18
2023-05-06T08:18:37.541Z,19.29
2023-05-06T08:21:05.849Z,19.27
2023-05-06T08:23:33.369Z,19.37
2023-05-06T08:26:02.035Z,19.36
2023-05-06T08:28:29.659Z,19.40
2023-05-06T08:30:57.185Z,19.46
2023-05-06T08:33:24.667Z,19.60
2023-05-06T08:36:02.393Z,19.66
2023-05-06T08:38:30.251Z,19.57
2023-05-06T08:41:07.871Z,19.63
2023-05-06T08:43:46.224Z,19.79
2023-05-06T08:46:15.305Z,19.75
2023-05-06T08:48:43.347Z,19.80
2023-05-06T08:51:18.101Z,19.88
2023-05-06T08:53:49.523Z,20.07
2023-05-06T08:56:18.077Z,20.06
2023-05-06T08:58:47.676Z,20.15
2023-05-06T09:01:16.102Z,20.06
2023-05-06T09:03:44.306Z,20.29
2023-05-06T09:06:11.874Z,20.05
2023-05-06T09:08:39.473Z,20.37
2023-05-06T09:11:30.088Z,20.41
2023-05-06T09:14:26.960Z,20.36
2023-05-06T09:16:54.677Z,20.34
2023-05-06T09:19:23.683Z,20.53
2023-05-06T09:21:52.154Z,20.54
2023-05-06T09:24:20.318Z,20.50
2023-05-06T09:26:48.306Z,20.54
2023-05-06T09:29:15.774Z,20.42
2023-05-06T09:31:46.590Z,20.59
2023-05-06T09:34:17.510Z,20.76
2023-05-06T09:36:45.485Z,20.93
2023-05-06T09:39:12.977Z,20.95
2023-05-06T09:41:40.468Z,21.06
2023-05-06T09:44:07.965Z,20.99
2023-05-06T09:46:36.243Z,20.80
2023-05-06T09:49:03.958Z,20.89
2023-05-06T09:51:31.364Z,20.96
2023-05-06T09:53:59.287Z,21.13
2023-05-06T09:56:27.030Z,21.03
2023-05-06T09:58:56.026Z,21.14
2023-05-06T10:01:36.004Z,21.29
2023-05-06T10:04:11.095Z,21.37
2023-05-06T10:06:41.427Z,21.33
2023-05-06T10:09:10.613Z,21.27
2023-05-06T10:11:38.751Z,21.38
2023-05-06T10:14:06.899Z,21.61
2023-05-06T10:16:36.666Z,21.67
2023-05-06T10:19:06.672Z,21.69
2023-05-06T10:21:42.862Z,21.64
2023-05-06T10:24:13.583Z,21.94
2023-05-06T10:26:42.539Z,22.03
2023-05-06T10:29:11.476Z,21.95
2023-05-06T10:31:57.266Z,22.17
2023-05-06T10:34:28.812Z,22.31
2023-05-06T10:36:58.689Z,22.37
2023-05-06T10:39:27.244Z,22.24
2023-05-06T10:41:54.796Z,22.38
2023-05-06T10:45:05.258Z,22.48
2023-05-06T10:47:57.511Z,22.60
2023-05-06T10:50:27.255Z,22.84
2023-05-06T10:52:59.327Z,22.81
2023-05-06T10:55:38.032Z,23.14
2023-05-06T10:58:11.557Z,23.02
2023-05-06T11:00:39.285Z,23.03
2023-05-06T11:03:14.158Z,23.40
2023-05-06T11:05:51.756Z,23.14
2023-05-06T11:08:26.822Z,23.41
2023-05-06T11:10:55.019Z,23.25
2023-05-06T11:13:30.104Z,23.58
2023-05-06T11:15:58.813Z,23.85
2023-05-06T11:18:29.570Z,23.80
2023-05-06T11:21:03.723Z,23.94
2023-05-06T11:23:52.409Z,23.80
2023-05-06T11:26:20.546Z,23.99
2023-05-06T11:28:51.303Z,23.98
2023-05-06T11:31:19.276Z,24.38
2023-05-06T11:33:52.778Z,24.29
2023-05-06T11:36:21.919Z,24.32
2023-05-06T11:38:53.385Z,24.18
2023-05-06T11:41:23.555Z,24.50
2023-05-06T11:43:53.619Z,24.45
2023-05-06T11:46:24.020Z,24.71
2023-05-06T11:48:51.871Z,24.87
2023-05-06T11:51:26.690Z,25.01
2023-05-06T11:54:10.454Z,25.09
2023-05-06T11:56:54.018Z,25.34
2023-05-06T11:59:34.496Z,25.58
2023-05-06T12:02:12.783Z,25.31
2023-05-06T12:04:50.256Z,25.47
2023-05-06T12:07:18.108Z,25.62
2023-05-06T12:09:51.137Z,25.83
2023-05-06T12:12:23.988Z,25.79
2023-05-06T12:14:54.105Z,25.62
2023-05-06T12:17:21.965Z,26.11
2023-05-06T12:19:50.172Z,25.71
2023-05-06T12:22:27.575Z,26.16
2023-05-06T12:24:55.146Z,26.08
2023-05-06T12:27:35.746Z,26.41
2023-05-06T12:30:04.915Z,26.37
2023-05-06T12:32:33.154Z,26.35
2023-05-06T12:35:05.924Z,26.16
2023-05-06T12:37:33.618Z,26.06
2023-05-06T12:40:01.397Z,26.43
2023-05-06T12:42:29.153Z,26.40
2023-05-06T12:44:56.617Z,26.52
2023-05-06T12:47:26.436Z,26.42
2023-05-06T12:49:59.371Z,26.61
2023-05-06T12:52:30.760Z,27.08
2023-05-06T12:55:00.871Z,26.89
2023-05-06T12:57:28.339Z,26.83
2023-05-06T12:59:56.487Z,27.16
2023-05-06T13:02:24.536Z,27.52
2023-05-06T13:04:52.108Z,27.83
2023-05-06T13:07:19.567Z,27.44
2023-05-06T13:09:47.044Z,27.38
2023-05-06T13:12:14.480Z,27.10
2023-05-06T13:14:41.943Z,27.15
2023-05-06T13:17:09.785Z,27.76
2023-05-06T13:19:37.555Z,27.87
2023-05-06T13:22:05.121Z,27.98
2023-05-06T13:24:32.615Z,27.79
2023-05-06T13:27:01.411Z,27.60
2023-05-06T13:29:29.942Z,27.35
2023-05-06T13:31:57.847Z,27.44
2023-05-06T13:34:26.092Z,27.00
2023-05-06T13:36:57.379Z,27.23
2023-05-06T13:39:25.668Z,27.04
2023-05-06T13:41:54.221Z,26.92
2023-05-06T13:44:22.194Z,27.01
2023-05-06T13:46:49.792Z,27.20
2023-05-06T13:49:18.723Z,27.20
2023-05-06T13:51:46.290Z,27.54
2023-05-06T13:54:13.944Z,27.19
2023-05-06T13:56:41.466Z,27.56
2023-05-06T13:59:10.386Z,27.56
2023-05-06T14:01:38.970Z,27.25
2023-05-06T14:04:06.558Z,27.46
2023-05-06T14:06:34.168Z,27.71
2023-05-06T14:09:02.107Z,27.51
2023-05-06T14:11:29.562Z,27.87
2023-05-06T14:13:57.527Z,27.64
2023-05-06T14:16:25.031Z,27.39
2023-05-06T14:18:52.680Z,27.05
2023-05-06T14:21:20.158Z,27.66
2023-05-06T14:23:47.660Z,27.91
2023-05-06T14:26:15.175Z,27.67
2023-05-06T14:28:42.595Z,27.20
2023-05-06T14:31:10.312Z,27.24
2023-05-06T14:33:38.998Z,27.61
2023-05-06T14:36:07.065Z,27.45
2023-05-06T14:38:34.556Z,26.90
2023-05-06T14:41:02.109Z,27.55
2023-05-06T14:43:29.588Z,27.81
2023-05-06T14:45:57.128Z,27.95
2023-05-06T14:48:25.562Z,27.87
2023-05-06T14:50:53.215Z,27.89
2023-05-06T14:53:20.724Z,27.95
2023-05-06T14:55:49.053Z,27.93
2023-05-06T14:58:16.726Z,27.59
2023-05-06T15:00:45.096Z,27.12
2023-05-06T15:03:12.544Z,27.47
2023-05-06T15:05:40.029Z,27.66
2023-05-06T15:08:07.590Z,27.72
2023-05-06T15:10:35.166Z,27.40
2023-05-06T15:13:02.763Z,27.47
2023-05-06T15:15:30.631Z,27.97
2023-05-06T15:17:58.139Z,27.93
2023-05-06T15:20:26.278Z,27.78
2023-05-06T15:22:53.762Z,27.71
2023-05-06T15:25:34.208Z,28.09
2023-05-06T15:28:03.031Z,27.91
2023-05-06T15:30:30.586Z,27.54
2023-05-06T15:32:58.198Z,27.35
2023-05-06T15:35:25.877Z,27.35
2023-05-06T15:37:59.294Z,27.27
2023-05-06T15:40:27.353Z,26.96
2023-05-06T15:42:55.274Z,27.08
2023-05-06T15:45:22.975Z,27.13
2023-05-06T15:47:50.533Z,27.32
2023-05-06T15:50:32.464Z,27.52
2023-05-06T15:53:02.332Z,27.34
2023-05-06T15:55:35.244Z,27.34
2023-05-06T15:58:11.193Z,26.98
2023-05-06T16:00:38.563Z,27.05
2023-05-06T16:03:08.045Z,27.19
2023-05-06T16:05:37.491Z,27.20
2023-05-06T16:08:05.113Z,26.73
2023-05-06T16:10:32.681Z,26.72
2023-05-06T16:13:00.275Z,26.73
2023-05-06T16:15:27.808Z,26.81
2023-05-06T16:17:56.697Z,26.39
2023-05-06T16:20:24.316Z,26.54
2023-05-06T16:22:52.786Z,26.49
2023-05-06T16:25:20.608Z,26.58
2023-05-06T16:27:48.823Z,26.57
2023-05-06T16:30:16.797Z,26.48
2023-05-06T16:32:44.753Z,26.23
2023-05-06T16:35:12.968Z,26.17
2023-05-06T16:37:40.559Z,26.13
2023-05-06T16:40:09.842Z,26.15
2023-05-06T16:42:37.433Z,26.17
2023-05-06T16:45:07.809Z,26.17
2023-05-06T16:47:35.543Z,25.92
2023-05-06T16:50:04.029Z,25.83
2023-05-06T16:52:31.446Z,25.98
2023-05-06T16:54:59.212Z,25.78
2023-05-06T16:57:26.787Z,25.88
2023-05-06T16:59:54.424Z,25.86
2023-05-06T17:02:21.912Z,25.97
2023-05-06T17:04:49.461Z,25.91
2023-05-06T17:07:17.053Z,25.79
2023-05-06T17:09:44.532Z,25.59
2023-05-06T17:12:12.030Z,25.61
2023-05-06T17:14:41.543Z,25.78
2023-05-06T17:17:09.076Z,25.72
2023-05-06T17:19:36.528Z,25.50
2023-05-06T17:22:04.251Z,25.69
2023-05-06T17:24:31.690Z,25.34
2023-05-06T17:26:59.695Z,25.20
2023-05-06T17:29:27.443Z,25.30
2023-05-06T17:31:54.912Z,25.33
2023-05-06T17:37:09.946Z,24.97
2023-05-06T17:39:38.515Z,24.86
2023-05-06T17:42:05.993Z,24.86
2023-05-06T17:44:35.356Z,24.88
2023-05-06T17:47:02.970Z,24.70
2023-05-06T17:49:31.041Z,24.82
2023-05-06T17:51:59.565Z,24.76
2023-05-06T17:54:34.818Z,24.49
2023-05-06T17:57:03.788Z,24.58
2023-05-06T17:59:31.283Z,24.58
2023-05-06T18:01:58.970Z,24.38
2023-05-06T18:04:26.605Z,24.34
2023-05-06T18:06:54.126Z,24.19
2023-05-06T18:09:21.597Z,24.20
2023-05-06T18:11:49.087Z,24.14
2023-05-06T18:14:16.597Z,24.04
2023-05-06T18:16:44.130Z,24.02
2023-05-06T18:19:11.930Z,23.81
2023-05-06T18:21:39.636Z,23.79
2023-05-06T18:24:16.178Z,23.81
2023-05-06T18:26:45.776Z,23.65
2023-05-06T18:29:13.760Z,23.65
2023-05-06T18:31:41.409Z,23.64
2023-05-06T18:34:08.958Z,23.41
2023-05-06T18:36:36.622Z,23.29
2023-05-06T18:39:04.851Z,23.42
2023-05-06T18:41:32.341Z,23.46
2023-05-06T18:43:59.814Z,23.34
2023-05-06T18:46:27.668Z,23.29
2023-05-06T18:48:56.078Z,23.40
2023-05-06T18:51:23.760Z,23.38
2023-05-06T18:53:51.307Z,22.99
2023-05-06T18:56:18.994Z,23.23
2023-05-06T18:58:46.518Z,23.01
2023-05-06T19:01:13.955Z,22.73
2023-05-06T19:03:41.899Z,22.93
2023-05-06T19:06:12.644Z,22.97
2023-05-06T19:08:40.835Z,22.81
2023-05-06T19:11:16.925Z,22.75
2023-05-06T19:13:46.387Z,22.79
2023-05-06T19:16:14.192Z,22.68
2023-05-06T19:18:41.834Z,22.62
2023-05-06T19:21:13.010Z,22.41
2023-05-06T19:23:40.893Z,22.31
2023-05-06T19:26:12.142Z,22.47
2023-05-06T19:28:42.780Z,22.39
2023-05-06T19:31:11.774Z,22.27
2023-05-06T19:33:41.018Z,22.31
2023-05-06T19:36:09.338Z,22.08
2023-05-06T19:38:38.097Z,22.09
2023-05-06T19:41:06.233Z,22.04
2023-05-06T19:43:33.715Z,21.98
2023-05-06T19:46:01.233Z,21.99
2023-05-06T19:48:28.807Z,22.11
2023-05-06T19:50:56.561Z,21.94
2023-05-06T19:53:24.189Z,21.97
2023-05-06T19:55:56.053Z,21.95
2023-05-06T19:58:23.506Z,21.90
2023-05-06T20:00:50.900Z,21.97
2023-05-06T20:03:18.596Z,21.85
2023-05-06T20:05:46.178Z,21.90
2023-05-06T20:08:13.878Z,21.84
2023-05-06T20:10:41.390Z,21.67
2023-05-06T20:13:08.929Z,21.64
2023-05-06T20:15:36.602Z,21.77
2023-05-06T20:18:04.260Z,21.54
2023-05-06T20:20:34.691Z,21.66
2023-05-06T20:23:03.364Z,21.53
2023-05-06T20:25:31.250Z,21.64
2023-05-06T20:27:59.781Z,21.48
2023-05-06T20:30:27.389Z,21.53
2023-05-06T20:32:54.907Z,21.48
2023-05-06T20:35:22.499Z,21.52
2023-05-06T20:37:50.387Z,21.51
2023-05-06T20:40:17.982Z,21.33
2023-05-06T20:42:45.468Z,21.13
2023-05-06T20:45:13.313Z,21.02
2023-05-06T20:47:40.931Z,20.88
2023-05-06T20:50:09.404Z,20.86
2023-05-06T20:52:37.398Z,20.76
2023-05-06T20:55:07.253Z,20.85
2023-05-06T20:57:34.714Z,20.63
2023-05-06T21:00:02.749Z,20.60
2023-05-06T21:02:32.998Z,20.55
2023-05-06T21:05:01.851Z,20.41
2023-05-06T21:07:29.499Z,20.41
2023-05-06T21:09:56.966Z,20.36
2023-05-06T21:12:24.465Z,20.32
2023-05-06T21:14:51.973Z,20.33
2023-05-06T21:17:19.446Z,20.37
2023-05-06T21:19:52.537Z,20.34
2023-05-06T21:22:24.367Z,20.21
2023-05-06T21:24:52.191Z,20.20
2023-05-06T21:27:19.677Z,20.16
2023-05-06T21:29:47.144Z,19.96
2023-05-06T21:32:14.832Z,19.99
2023-05-06T21:34:42.359Z,19.97
2023-05-06T21:37:09.824Z,19.87
2023-05-06T21:39:37.355Z,19.76
2023-05-06T21:42:04.972Z,19.88
2023-05-06T21:44:32.439Z,19.86
2023-05-06T21:46:59.883Z,19.88
2023-05-06T21:49:27.356Z,19.81
2023-05-06T21:51:54.776Z,19.81
2023-05-06T21:54:24.259Z,19.70
2023-05-06T21:56:51.792Z,19.57
2023-05-06T21:59:19.893Z,19.55
2023-05-06T22:01:48.253Z,19.46
2023-05-06T22:04:16.926Z,19.48
2023-05-06T22:06:44.481Z,19.59
2023-05-06T22:09:12.057Z,19.60
2023-05-06T22:11:39.506Z,19.45
2023-05-06T22:14:07.105Z,19.37
2023-05-06T22:16:38.095Z,19.46
2023-05-06T22:19:06.701Z,19.35
2023-05-06T22:21:35.355Z,19.40
2023-05-06T22:24:03.019Z,19.36
2023-05-06T22:26:30.547Z,19.46
2023-05-06T22:28:58.064Z,19.56
2023-05-06T22:31:26.583Z,19.47
2023-05-06T22:33:58.024Z,19.38
2023-05-06T22:36:29.648Z,19.37
2023-05-06T22:38:57.186Z,19.50
2023-05-06T22:41:24.699Z,19.30
2023-05-06T22:43:52.398Z,19.33
2023-05-06T22:46:19.989Z,19.36
2023-05-06T22:48:47.425Z,19.38
2023-05-06T22:51:16.125Z,19.27
2023-05-06T22:53:43.675Z,19.14
2023-05-06T22:56:11.359Z,19.14
2023-05-06T22:58:38.912Z,19.13
2023-05-06T23:01:07.503Z,19.14
2023-05-06T23:03:36.114Z,19.02
2023-05-06T23:06:06.192Z,18.79
2023-05-06T23:08:33.832Z,18.73
2023-05-06T23:11:01.337Z,18.74
2023-05-06T23:13:28.917Z,18.92
2023-05-06T23:15:56.464Z,18.93
2023-05-06T23:18:23.988Z,18.98
2023-05-06T23:20:51.527Z,18.86
2023-05-06T23:23:19.045Z,18.74
2023-05-06T23:25:46.443Z,18.57
2023-05-06T23:28:13.901Z,18.55
2023-05-06T23:30:41.424Z,18.41
2023-05-06T23:33:09.018Z,18.57
2023-05-06T23:35:36.612Z,18.65
2023-05-06T23:38:04.081Z,18.65
2023-05-06T23:40:31.576Z,18.72
2023-05-06T23:42:59.082Z,18.59
2023-05-06T23:45:27.061Z,18.62
2023-05-06T23:47:54.948Z,18.49
2023-05-06T23:50:22.396Z,18.19
2023-05-06T23:52:49.954Z,18.41
2023-05-06T23:55:17.519Z,18.50
2023-05-06T23:57:45.953Z,18.46
